createdAt,value
2023-01-18T00:01:13.118Z,7.80
2023-01-18T00:03:41.723Z,6.70
2023-01-18T00:06:10.426Z,6.70
2023-01-18T00:08:39.003Z,8.00
2023-01-18T00:11:12.905Z,6.70
2023-01-18T00:13:40.751Z,6.40
2023-01-18T00:16:21.242Z,7.90
2023-01-18T00:18:54.244Z,8.00
2023-01-18T00:21:22.756Z,7.70
2023-01-18T00:23:50.421Z,7.80
2023-01-18T00:26:18.102Z,7.90
2023-01-18T00:28:45.593Z,7.90
2023-01-18T00:31:20.948Z,7.10
2023-01-18T00:33:49.821Z,6.10
2023-01-18T00:36:17.639Z,7.50
2023-01-18T00:38:51.150Z,4.00
2023-01-18T00:41:19.956Z,7.00
2023-01-18T00:43:47.069Z,6.10
2023-01-18T00:46:19.703Z,5.80
2023-01-18T00:48:47.653Z,6.90
2023-01-18T00:51:19.776Z,5.40
2023-01-18T00:53:47.378Z,6.50
2023-01-18T00:56:21.313Z,6.10
2023-01-18T00:58:48.668Z,5.60
2023-01-18T01:01:16.225Z,3.90
2023-01-18T01:04:01.925Z,6.30
2023-01-18T01:06:46.465Z,6.10
2023-01-18T01:09:22.444Z,5.40
2023-01-18T01:12:09.247Z,5.80
2023-01-18T01:15:01.621Z,4.00
2023-01-18T01:17:53.159Z,3.50
2023-01-18T01:20:38.990Z,5.20
2023-01-18T01:23:28.851Z,5.20
2023-01-18T01:26:08.383Z,5.50
2023-01-18T01:28:44.165Z,4.50
2023-01-18T01:31:16.055Z,4.90
2023-01-18T01:33:48.671Z,4.90
2023-01-18T01:36:19.623Z,5.80
2023-01-18T01:38:47.330Z,4.30
2023-01-18T01:41:29.479Z,4.10
2023-01-18T01:43:59.434Z,4.10
2023-01-18T01:46:48.182Z,3.50
2023-01-18T01:49:20.839Z,3.80
2023-01-18T01:51:54.271Z,3.60
2023-01-18T01:54:37.070Z,4.30
2023-01-18T01:57:13.648Z,3.20
2023-01-18T01:59:49.638Z,3.60
2023-01-18T02:02:16.811Z,3.70
2023-01-18T02:04:45.965Z,3.90
2023-01-18T02:07:13.268Z,4.50
2023-01-18T02:09:41.148Z,5.30
2023-01-18T02:12:08.461Z,3.30
2023-01-18T02:14:36.218Z,3.20
2023-01-18T02:17:21.545Z,3.50
2023-01-18T02:20:06.493Z,2.70
2023-01-18T02:23:01.209Z,4.40
2023-01-18T02:25:59.234Z,4.20
2023-01-18T02:28:38.046Z,3.10
2023-01-18T02:31:25.513Z,2.80
2023-01-18T02:34:01.915Z,2.80
2023-01-18T02:36:44.235Z,2.40
2023-01-18T02:39:37.707Z,2.80
2023-01-18T02:42:30.679Z,3.70
2023-01-18T02:45:18.242Z,3.10
2023-01-18T02:47:46.137Z,3.20
2023-01-18T02:50:23.490Z,3.60
2023-01-18T02:52:51.452Z,2.40
2023-01-18T02:55:53.471Z,2.60
2023-01-18T02:58:34.342Z,3.40
2023-01-18T03:01:14.911Z,3.00
2023-01-18T03:03:45.567Z,2.90
2023-01-18T03:06:13.789Z,2.60
2023-01-18T03:08:55.220Z,3.00
2023-01-18T03:11:52.972Z,2.30
2023-01-18T03:14:44.745Z,2.80
2023-01-18T03:17:30.595Z,3.70
2023-01-18T03:20:08.123Z,3.80
2023-01-18T03:22:58.186Z,2.80
2023-01-18T03:25:40.830Z,2.70
2023-01-18T03:28:45.073Z,2.80
2023-01-18T03:31:36.689Z,2.70
2023-01-18T03:34:19.005Z,3.10
2023-01-18T03:36:48.903Z,3.70
2023-01-18T03:39:57.665Z,3.20
2023-01-18T03:42:32.527Z,4.20
2023-01-18T03:45:15.393Z,5.30
2023-01-18T03:47:42.767Z,4.10
2023-01-18T03:50:10.216Z,5.10
2023-01-18T03:52:49.774Z,4.00
2023-01-18T03:55:19.964Z,3.60
2023-01-18T03:57:58.109Z,2.40
2023-01-18T04:00:25.229Z,3.30
2023-01-18T04:02:52.660Z,3.00
2023-01-18T04:05:19.914Z,3.90
2023-01-18T04:07:47.100Z,4.20
2023-01-18T04:10:14.425Z,3.70
2023-01-18T04:12:41.602Z,2.80
2023-01-18T04:15:09.697Z,3.30
2023-01-18T04:17:37.316Z,3.50
2023-01-18T04:20:05.678Z,3.10
2023-01-18T04:22:32.920Z,4.40
2023-01-18T04:25:00.081Z,4.40
2023-01-18T04:27:27.312Z,3.70
2023-01-18T04:29:54.536Z,3.70
2023-01-18T04:32:21.667Z,4.80
2023-01-18T04:34:48.823Z,4.00
2023-01-18T04:37:16.024Z,2.90
2023-01-18T04:39:43.179Z,2.80
2023-01-18T04:42:10.423Z,2.80
2023-01-18T04:44:37.610Z,3.10
2023-01-18T04:47:04.857Z,4.00
2023-01-18T04:49:32.521Z,4.20
2023-01-18T04:51:59.761Z,3.30
2023-01-18T04:54:27.620Z,2.90
2023-01-18T04:56:54.829Z,4.00
2023-01-18T04:59:21.918Z,3.90
2023-01-18T05:01:49.048Z,4.50
2023-01-18T05:04:16.327Z,3.90
2023-01-18T05:06:43.510Z,4.20
2023-01-18T05:09:11.970Z,3.90
2023-01-18T05:11:39.165Z,4.80
2023-01-18T05:14:06.405Z,4.80
2023-01-18T05:16:33.641Z,5.20
2023-01-18T05:19:00.952Z,4.00
2023-01-18T05:21:28.177Z,4.30
2023-01-18T05:23:55.429Z,4.30
2023-01-18T05:26:23.712Z,4.80
2023-01-18T05:28:56.577Z,3.90
2023-01-18T05:31:24.456Z,4.40
2023-01-18T05:33:51.899Z,3.70
2023-01-18T05:36:19.059Z,3.80
2023-01-18T05:38:47.249Z,4.10
2023-01-18T05:41:14.402Z,5.00
2023-01-18T05:43:41.679Z,3.10
2023-01-18T05:46:09.027Z,4.50
2023-01-18T05:48:36.163Z,3.40
2023-01-18T05:51:11.047Z,3.10
2023-01-18T05:53:39.241Z,4.80
2023-01-18T05:56:08.376Z,4.30
2023-01-18T05:58:35.624Z,4.80
2023-01-18T06:01:02.912Z,3.00
2023-01-18T06:03:30.216Z,5.00
2023-01-18T06:05:58.366Z,4.60
2023-01-18T06:08:25.554Z,5.00
2023-01-18T06:10:54.783Z,4.60
2023-01-18T06:13:30.253Z,4.70
2023-01-18T06:15:58.749Z,4.40
2023-01-18T06:18:28.711Z,4.40
2023-01-18T06:20:59.105Z,4.40
2023-01-18T06:23:28.654Z,4.10
2023-01-18T06:25:55.940Z,5.00
2023-01-18T06:28:23.743Z,5.40
2023-01-18T06:30:55.956Z,3.60
2023-01-18T06:33:24.060Z,3.90
2023-01-18T06:35:51.820Z,3.40
2023-01-18T06:38:20.213Z,4.50
2023-01-18T06:40:47.554Z,4.80
2023-01-18T06:43:15.445Z,4.60
2023-01-18T06:45:42.886Z,5.00
2023-01-18T06:48:10.127Z,4.80
2023-01-18T06:50:37.254Z,4.00
2023-01-18T06:53:04.404Z,4.40
2023-01-18T06:55:31.599Z,4.10
2023-01-18T06:57:58.770Z,5.30
2023-01-18T07:00:26.037Z,5.00
2023-01-18T07:02:53.180Z,5.40
2023-01-18T07:05:20.609Z,5.00
2023-01-18T07:07:47.958Z,4.90
2023-01-18T07:10:16.722Z,5.20
2023-01-18T07:12:48.014Z,5.10
2023-01-18T07:15:21.810Z,5.40
2023-01-18T07:17:49.960Z,5.00
2023-01-18T07:20:17.722Z,4.70
2023-01-18T07:22:45.225Z,3.60
2023-01-18T07:25:12.829Z,4.40
2023-01-18T07:27:43.653Z,5.60
2023-01-18T07:30:12.021Z,5.10
2023-01-18T07:32:44.354Z,4.90
2023-01-18T07:35:11.505Z,4.90
2023-01-18T07:37:38.698Z,4.90
2023-01-18T07:40:08.455Z,4.60
2023-01-18T07:42:36.064Z,4.50
2023-01-18T07:45:03.420Z,5.00
2023-01-18T07:47:30.587Z,3.40
2023-01-18T07:49:57.744Z,3.80
2023-01-18T07:52:25.104Z,3.50
2023-01-18T07:54:52.716Z,4.50
2023-01-18T07:57:20.028Z,4.60
2023-01-18T07:59:47.125Z,4.60
2023-01-18T08:02:14.487Z,5.70
2023-01-18T08:04:42.676Z,5.10
2023-01-18T08:07:10.057Z,5.80
2023-01-18T08:09:37.251Z,3.90
2023-01-18T08:12:06.221Z,2.90
2023-01-18T08:14:33.401Z,3.70
2023-01-18T08:17:00.635Z,4.30
2023-01-18T08:19:28.054Z,5.30
2023-01-18T08:21:55.216Z,5.00
2023-01-18T08:24:22.468Z,4.30
2023-01-18T08:26:49.601Z,4.80
2023-01-18T08:29:16.766Z,3.90
2023-01-18T08:31:43.919Z,3.90
2023-01-18T08:34:11.080Z,3.20
2023-01-18T08:36:38.156Z,3.60
2023-01-18T08:39:05.243Z,3.60
2023-01-18T08:41:32.399Z,3.50
2023-01-18T08:43:59.751Z,3.20
2023-01-18T08:46:27.444Z,2.90
2023-01-18T08:48:57.376Z,2.40
2023-01-18T08:51:25.493Z,4.00
2023-01-18T08:53:53.943Z,3.10
2023-01-18T08:56:21.408Z,3.20
2023-01-18T08:58:48.851Z,3.20
2023-01-18T09:01:16.100Z,3.90
2023-01-18T09:03:44.416Z,3.70
2023-01-18T09:06:13.070Z,2.30
2023-01-18T09:08:40.513Z,3.60
2023-01-18T09:11:09.906Z,4.50
2023-01-18T09:13:54.481Z,4.30
2023-01-18T09:16:26.141Z,3.00
2023-01-18T09:18:55.462Z,2.90
2023-01-18T09:21:22.610Z,2.50
2023-01-18T09:23:50.344Z,3.20
2023-01-18T09:26:20.028Z,2.70
2023-01-18T09:28:51.711Z,3.10
2023-01-18T09:31:21.601Z,2.90
2023-01-18T09:33:53.563Z,2.40
2023-01-18T09:36:25.780Z,2.70
2023-01-18T09:38:55.114Z,2.50
2023-01-18T09:41:30.459Z,2.50
2023-01-18T09:44:10.278Z,2.30
2023-01-18T09:46:40.536Z,2.70
2023-01-18T09:49:18.457Z,2.10
2023-01-18T09:52:07.101Z,2.10
2023-01-18T09:54:39.540Z,2.70
2023-01-18T09:57:59.886Z,2.40
2023-01-18T10:00:39.693Z,3.90
2023-01-18T10:03:32.957Z,2.60
2023-01-18T10:06:14.775Z,2.90
2023-01-18T10:09:05.990Z,2.70
2023-01-18T10:12:00.565Z,2.60
2023-01-18T10:14:44.795Z,2.30
2023-01-18T10:19:44.795Z,2.20
2023-01-18T10:22:24.146Z,2.10
2023-01-18T10:25:00.806Z,2.70
2023-01-18T10:27:36.213Z,2.60
2023-01-18T10:30:33.996Z,2.90
2023-01-18T10:33:11.898Z,2.70
2023-01-18T10:35:44.750Z,2.70
2023-01-18T10:38:17.482Z,2.30
2023-01-18T10:40:54.652Z,1.90
2023-01-18T10:43:25.340Z,2.10
2023-01-18T10:45:53.487Z,2.70
2023-01-18T10:48:20.614Z,2.00
2023-01-18T10:50:53.549Z,2.70
2023-01-18T10:53:24.301Z,2.60
2023-01-18T10:56:19.216Z,3.40
2023-01-18T10:58:57.243Z,2.60
2023-01-18T11:01:35.998Z,2.70
2023-01-18T11:04:20.358Z,2.70
2023-01-18T11:06:49.997Z,2.10
2023-01-18T11:09:58.837Z,1.70
2023-01-18T11:12:47.373Z,2.00
2023-01-18T11:15:14.503Z,3.10
2023-01-18T11:17:57.443Z,2.00
2023-01-18T11:20:33.546Z,2.00
2023-01-18T11:23:17.182Z,2.50
2023-01-18T11:26:18.507Z,2.10
2023-01-18T11:28:59.542Z,2.00
2023-01-18T11:31:31.631Z,1.50
2023-01-18T11:34:07.256Z,2.00
2023-01-18T11:36:44.607Z,1.70
2023-01-18T11:39:26.833Z,2.50
2023-01-18T11:42:37.253Z,1.70
2023-01-18T11:45:39.891Z,2.60
2023-01-18T11:48:14.251Z,2.10
2023-01-18T11:50:42.930Z,1.90
2023-01-18T11:54:03.698Z,1.90
2023-01-18T11:56:40.247Z,1.50
2023-01-18T11:59:23.911Z,2.70
2023-01-18T12:02:31.101Z,1.50
2023-01-18T12:05:04.307Z,3.40
2023-01-18T12:08:13.365Z,3.00
2023-01-18T12:11:15.004Z,2.30
2023-01-18T12:13:49.531Z,2.20
2023-01-18T12:16:48.610Z,2.70
2023-01-18T12:19:43.327Z,2.20
2023-01-18T12:25:29.335Z,2.30
2023-01-18T12:28:15.943Z,3.30
2023-01-18T12:31:02.212Z,2.00
2023-01-18T12:33:43.696Z,2.50
2023-01-18T12:36:33.791Z,2.40
2023-01-18T12:39:16.557Z,2.80
2023-01-18T12:41:59.042Z,2.40
2023-01-18T12:44:40.826Z,3.10
2023-01-18T12:47:40.074Z,2.90
2023-01-18T12:50:23.674Z,2.20
2023-01-18T12:52:58.090Z,3.40
2023-01-18T12:55:26.887Z,2.10
2023-01-18T12:58:01.055Z,1.70
2023-01-18T13:00:43.552Z,2.40
2023-01-18T13:03:15.306Z,2.20
2023-01-18T13:05:55.905Z,2.70
2023-01-18T13:08:39.595Z,2.40
2023-01-18T13:11:13.538Z,3.50
2023-01-18T13:13:44.382Z,2.70
2023-01-18T13:16:22.486Z,3.20
2023-01-18T13:19:04.930Z,3.50
2023-01-18T13:22:00.133Z,2.80
2023-01-18T13:24:38.891Z,2.90
2023-01-18T13:27:12.464Z,2.60
2023-01-18T13:29:41.288Z,3.30
2023-01-18T13:32:31.592Z,2.50
2023-01-18T13:35:30.385Z,2.80
2023-01-18T13:38:10.680Z,3.50
2023-01-18T13:40:43.275Z,3.20
2023-01-18T13:43:56.279Z,2.90
2023-01-18T13:46:25.337Z,2.10
2023-01-18T13:48:56.773Z,2.00
2023-01-18T13:51:39.180Z,2.90
2023-01-18T13:54:07.574Z,3.10
2023-01-18T13:56:37.886Z,2.90
2023-01-18T13:59:11.224Z,1.80
2023-01-18T14:01:43.410Z,2.10
2023-01-18T14:04:32.843Z,2.40
2023-01-18T14:07:05.033Z,2.30
2023-01-18T14:09:42.886Z,3.00
2023-01-18T14:12:11.283Z,2.40
2023-01-18T14:15:00.413Z,3.00
2023-01-18T14:17:33.282Z,2.30
2023-01-18T14:20:20.903Z,2.40
2023-01-18T14:23:20.478Z,3.70
2023-01-18T14:26:03.076Z,4.10
2023-01-18T14:28:40.798Z,4.00
2023-01-18T14:31:25.879Z,4.50
2023-01-18T14:33:53.052Z,3.80
2023-01-18T14:36:29.004Z,3.40
2023-01-18T14:39:17.432Z,3.60
2023-01-18T14:41:49.519Z,2.80
2023-01-18T14:44:23.579Z,3.00
2023-01-18T14:49:34.801Z,3.00
2023-01-18T14:52:03.243Z,2.30
2023-01-18T14:54:31.269Z,2.90
2023-01-18T14:57:08.295Z,2.60
2023-01-18T14:59:35.598Z,2.50
2023-01-18T15:02:17.102Z,2.50
2023-01-18T15:04:46.076Z,2.40
2023-01-18T15:07:22.902Z,3.40
2023-01-18T15:09:50.424Z,3.70
2023-01-18T15:12:24.805Z,3.40
2023-01-18T15:14:54.990Z,3.00
2023-01-18T15:17:26.373Z,2.80
2023-01-18T15:20:02.036Z,3.10
2023-01-18T15:22:33.898Z,3.10
2023-01-18T15:25:01.278Z,3.50
2023-01-18T15:27:32.034Z,3.90
2023-01-18T15:30:01.339Z,4.10
2023-01-18T15:32:31.170Z,4.50
2023-01-18T15:34:59.674Z,2.30
2023-01-18T15:37:32.538Z,5.90
2023-01-18T15:40:03.204Z,6.10
2023-01-18T15:42:39.222Z,8.20
2023-01-18T15:45:19.058Z,5.30
2023-01-18T15:47:52.871Z,4.60
2023-01-18T15:50:30.531Z,2.90
2023-01-18T15:53:09.300Z,4.00
2023-01-18T15:55:49.135Z,2.60
2023-01-18T15:58:52.831Z,2.90
2023-01-18T16:01:27.149Z,2.50
2023-01-18T16:04:05.042Z,2.70
2023-01-18T16:06:38.251Z,2.40
2023-01-18T16:09:13.409Z,2.40
2023-01-18T16:11:40.620Z,2.40
2023-01-18T16:14:31.993Z,3.60
2023-01-18T16:17:17.603Z,3.30
2023-01-18T16:19:57.125Z,3.80
2023-01-18T16:22:27.180Z,3.60
2023-01-18T16:24:56.028Z,4.00
2023-01-18T16:27:26.781Z,4.70
2023-01-18T16:30:01.607Z,3.80
2023-01-18T16:32:34.857Z,4.60
2023-01-18T16:35:23.446Z,4.20
2023-01-18T16:37:51.451Z,4.90
2023-01-18T16:40:21.990Z,4.00
2023-01-18T16:43:05.326Z,4.60
2023-01-18T16:45:37.394Z,5.40
2023-01-18T16:48:05.727Z,5.80
2023-01-18T16:50:33.100Z,4.70
2023-01-18T16:53:00.368Z,5.50
2023-01-18T16:55:27.536Z,6.30
2023-01-18T16:57:54.624Z,6.20
2023-01-18T17:00:25.687Z,6.50
2023-01-18T17:02:52.902Z,6.00
2023-01-18T17:05:20.378Z,6.90
2023-01-18T17:07:47.691Z,6.30
2023-01-18T17:10:29.416Z,6.90
2023-01-18T17:12:57.656Z,5.50
2023-01-18T17:15:27.744Z,5.70
2023-01-18T17:17:54.944Z,5.60
2023-01-18T17:20:24.903Z,4.80
2023-01-18T17:22:53.612Z,5.70
2023-01-18T17:25:22.210Z,5.40
2023-01-18T17:27:50.923Z,5.60
2023-01-18T17:30:21.512Z,5.70
2023-01-18T17:32:49.699Z,6.30
2023-01-18T17:35:21.348Z,7.00
2023-01-18T17:37:48.846Z,6.20
2023-01-18T17:40:28.180Z,7.10
2023-01-18T17:43:01.566Z,10.50
2023-01-18T17:45:28.912Z,9.60
2023-01-18T17:47:55.975Z,8.30
2023-01-18T17:50:24.785Z,7.40
2023-01-18T17:52:53.544Z,5.90
2023-01-18T17:55:24.476Z,6.50
2023-01-18T17:57:55.658Z,5.80
2023-01-18T18:00:22.791Z,6.40
2023-01-18T18:02:52.101Z,6.20
2023-01-18T18:05:19.829Z,6.10
2023-01-18T18:07:48.978Z,6.50
2023-01-18T18:10:16.812Z,6.60
2023-01-18T18:12:44.081Z,7.80
2023-01-18T18:15:11.865Z,7.40
2023-01-18T18:17:39.650Z,8.20
2023-01-18T18:20:10.262Z,7.60
2023-01-18T18:22:37.893Z,7.50
2023-01-18T18:25:06.774Z,7.90
2023-01-18T18:27:44.810Z,7.30
2023-01-18T18:30:13.152Z,7.00
2023-01-18T18:32:40.321Z,7.30
2023-01-18T18:35:23.122Z,5.50
2023-01-18T18:37:53.458Z,4.60
2023-01-18T18:40:21.535Z,5.80
2023-01-18T18:43:00.844Z,6.80
2023-01-18T18:45:33.126Z,6.40
2023-01-18T18:48:00.818Z,5.60
2023-01-18T18:50:28.525Z,5.70
2023-01-18T18:52:56.861Z,6.70
2023-01-18T18:55:24.315Z,5.90
2023-01-18T18:57:51.399Z,5.20
2023-01-18T19:00:19.139Z,5.50
2023-01-18T19:02:46.421Z,6.30
2023-01-18T19:05:14.597Z,5.10
2023-01-18T19:07:42.496Z,5.70
2023-01-18T19:10:12.879Z,6.30
2023-01-18T19:12:40.291Z,6.30
2023-01-18T19:15:08.175Z,5.60
2023-01-18T19:17:36.690Z,5.40
2023-01-18T19:20:06.940Z,5.30
2023-01-18T19:22:37.771Z,6.80
2023-01-18T19:25:06.063Z,6.60
2023-01-18T19:27:33.680Z,6.70
2023-01-18T19:30:00.765Z,6.10
2023-01-18T19:32:27.849Z,6.90
2023-01-18T19:34:55.027Z,6.60
2023-01-18T19:37:22.138Z,6.60
2023-01-18T19:39:49.503Z,5.70
2023-01-18T19:42:16.610Z,6.70
2023-01-18T19:44:43.770Z,5.20
2023-01-18T19:47:10.893Z,5.80
2023-01-18T19:49:39.610Z,5.30
2023-01-18T19:52:06.793Z,4.30
2023-01-18T19:54:33.853Z,4.60
2023-01-18T19:57:01.427Z,4.50
2023-01-18T19:59:28.699Z,5.80
2023-01-18T20:01:55.984Z,5.30
2023-01-18T20:04:23.278Z,6.30
2023-01-18T20:06:51.013Z,5.50
2023-01-18T20:09:22.148Z,5.40
2023-01-18T20:11:50.573Z,5.50
2023-01-18T20:14:18.770Z,4.80
2023-01-18T20:16:46.572Z,4.30
2023-01-18T20:19:15.091Z,4.50
2023-01-18T20:21:42.577Z,4.10
2023-01-18T20:24:09.841Z,4.00
2023-01-18T20:26:38.592Z,4.40
2023-01-18T20:29:08.585Z,5.60
2023-01-18T20:31:37.268Z,5.00
2023-01-18T20:34:05.493Z,5.10
2023-01-18T20:36:34.255Z,4.60
2023-01-18T20:39:02.934Z,4.70
2023-01-18T20:41:30.185Z,5.60
2023-01-18T20:43:57.218Z,5.30
2023-01-18T20:46:24.354Z,5.30
2023-01-18T20:48:51.426Z,5.40
2023-01-18T20:51:18.542Z,5.50
2023-01-18T20:53:45.777Z,5.60
2023-01-18T20:56:27.822Z,4.60
2023-01-18T20:58:57.400Z,5.40
2023-01-18T21:01:30.981Z,5.80
2023-01-18T21:03:59.552Z,5.50
2023-01-18T21:06:27.275Z,7.30
2023-01-18T21:08:56.449Z,8.20
2023-01-18T21:11:25.801Z,9.90
2023-01-18T21:13:54.926Z,8.40
2023-01-18T21:16:23.133Z,7.90
2023-01-18T21:18:55.455Z,8.20
2023-01-18T21:21:23.342Z,7.20
2023-01-18T21:23:50.478Z,7.90
2023-01-18T21:26:19.458Z,8.20
2023-01-18T21:28:46.550Z,7.70
2023-01-18T21:31:13.691Z,7.10
2023-01-18T21:33:41.861Z,7.50
2023-01-18T21:36:13.606Z,6.20
2023-01-18T21:38:41.238Z,7.00
2023-01-18T21:41:27.462Z,7.20
2023-01-18T21:44:13.085Z,7.90
2023-01-18T21:46:51.508Z,6.30
2023-01-18T21:50:16.159Z,7.80
2023-01-18T21:52:43.750Z,6.70
2023-01-18T21:55:10.921Z,6.80
2023-01-18T21:57:38.187Z,6.90
2023-01-18T22:00:06.315Z,6.00
2023-01-18T22:02:35.491Z,6.50
2023-01-18T22:05:03.547Z,5.50
2023-01-18T22:07:33.718Z,5.80
2023-01-18T22:10:06.816Z,6.30
2023-01-18T22:12:34.651Z,5.30
2023-01-18T22:15:02.430Z,5.20
2023-01-18T22:17:29.576Z,4.90
2023-01-18T22:19:56.991Z,5.70
2023-01-18T22:22:24.026Z,5.50
2023-01-18T22:24:51.272Z,5.50
2023-01-18T22:27:18.501Z,5.00
2023-01-18T22:29:45.549Z,5.20
2023-01-18T22:32:12.630Z,5.50
2023-01-18T22:34:39.712Z,5.30
2023-01-18T22:37:06.848Z,5.50
2023-01-18T22:39:33.917Z,5.40
2023-01-18T22:42:01.008Z,5.00
2023-01-18T22:44:28.177Z,5.10
2023-01-18T22:46:55.365Z,5.10
2023-01-18T22:49:22.459Z,4.70
2023-01-18T22:51:49.581Z,4.40
2023-01-18T22:54:18.781Z,5.70
2023-01-18T22:56:46.175Z,4.10
2023-01-18T22:59:13.546Z,5.10
2023-01-18T23:01:40.679Z,4.80
2023-01-18T23:04:09.806Z,5.70
2023-01-18T23:06:46.201Z,5.90
2023-01-18T23:09:16.720Z,4.40
2023-01-18T23:11:46.832Z,4.90
2023-01-18T23:14:32.357Z,4.70
2023-01-18T23:17:17.716Z,4.90
2023-01-18T23:19:44.831Z,4.00
2023-01-18T23:22:11.919Z,4.30
2023-01-18T23:24:39.505Z,4.10
2023-01-18T23:27:11.961Z,4.80
2023-01-18T23:29:39.925Z,4.50
2023-01-18T23:32:08.004Z,4.70
2023-01-18T23:34:35.122Z,4.00
2023-01-18T23:37:02.200Z,3.60
2023-01-18T23:39:47.783Z,4.80
2023-01-18T23:42:33.142Z,5.80
2023-01-18T23:45:18.528Z,6.20
2023-01-18T23:48:04.423Z,5.20
2023-01-18T23:50:49.928Z,4.80
2023-01-18T23:53:35.714Z,5.00
2023-01-18T23:56:02.895Z,4.30
2023-01-18T23:58:30.108Z,5.40
